Buchtel, Ohio
Current Conditions -  °F | °C
As of 5:35 PM on Wednesday 22 Oct 2014 (Local Time) from KUNI Reporting Station
Overcast Overcast  
Wind Chill: 50°   Ceiling: 2800
Heat Index: 50°   Visibility: 10mi
Dew Point: 43°   Wind: 6mph
Humidity: 76%   Direction: 320°NW
Pressure: 30.22"   Gusts: NA
Location:  39.46°N, 82.18°W
Report Text: KUNI 222135Z AUTO 32005KT 10SM OVC028 10/06 A3022 RMK AO2 T01000059
Loading
Personal Weather Stations






























Interactive Weather Map
Tropical Storm Tracking
New forecast layout! Learn more

10-Day Weather Forecast

Advertisements
Track Severe Weather on mobile